sensor_id;sensor_type;location;lat;lon;timestamp;P1;durP1;ratioP1;P2;durP2;ratioP2
32228;SDS011;18717;48.034;11.186;2023-05-15T00:01:41;18.20;;;16.40;;
32228;SDS011;18717;48.034;11.186;2023-05-15T00:04:09;20.80;;;17.70;;
32228;SDS011;18717;48.034;11.186;2023-05-15T00:06:37;18.98;;;17.17;;
32228;SDS011;18717;48.034;11.186;2023-05-15T00:09:04;19.17;;;17.25;;
32228;SDS011;18717;48.034;11.186;2023-05-15T00:11:32;20.48;;;18.33;;
32228;SDS011;18717;48.034;11.186;2023-05-15T00:14:00;20.98;;;18.75;;
32228;SDS011;18717;48.034;11.186;2023-05-15T00:16:27;19.63;;;17.63;;
32228;SDS011;18717;48.034;11.186;2023-05-15T00:18:57;20.35;;;18.08;;
32228;SDS011;18717;48.034;11.186;2023-05-15T00:21:24;22.48;;;18.02;;
32228;SDS011;18717;48.034;11.186;2023-05-15T00:23:52;22.20;;;18.02;;
32228;SDS011;18717;48.034;11.186;2023-05-15T00:26:21;20.10;;;17.83;;
32228;SDS011;18717;48.034;11.186;2023-05-15T00:28:49;26.65;;;18.65;;
32228;SDS011;18717;48.034;11.186;2023-05-15T00:31:17;24.77;;;19.02;;
32228;SDS011;18717;48.034;11.186;2023-05-15T00:33:45;22.92;;;19.05;;
32228;SDS011;18717;48.034;11.186;2023-05-15T00:36:14;22.25;;;18.23;;
32228;SDS011;18717;48.034;11.186;2023-05-15T00:38:42;24.10;;;18.38;;
32228;SDS011;18717;48.034;11.186;2023-05-15T00:41:10;25.63;;;19.55;;
32228;SDS011;18717;48.034;11.186;2023-05-15T00:43:38;23.00;;;18.90;;
32228;SDS011;18717;48.034;11.186;2023-05-15T00:46:06;21.25;;;18.95;;
32228;SDS011;18717;48.034;11.186;2023-05-15T00:48:34;20.98;;;18.50;;
32228;SDS011;18717;48.034;11.186;2023-05-15T00:51:02;22.88;;;17.50;;
32228;SDS011;18717;48.034;11.186;2023-05-15T00:53:31;19.63;;;17.35;;
32228;SDS011;18717;48.034;11.186;2023-05-15T00:55:58;21.77;;;18.02;;
32228;SDS011;18717;48.034;11.186;2023-05-15T00:58:27;19.88;;;17.77;;
32228;SDS011;18717;48.034;11.186;2023-05-15T01:00:55;21.02;;;17.67;;
32228;SDS011;18717;48.034;11.186;2023-05-15T01:03:23;19.08;;;17.08;;
32228;SDS011;18717;48.034;11.186;2023-05-15T01:05:50;21.17;;;17.40;;
32228;SDS011;18717;48.034;11.186;2023-05-15T01:08:19;22.17;;;17.23;;
32228;SDS011;18717;48.034;11.186;2023-05-15T01:10:51;20.30;;;18.20;;
32228;SDS011;18717;48.034;11.186;2023-05-15T01:13:19;19.90;;;16.63;;
32228;SDS011;18717;48.034;11.186;2023-05-15T01:15:47;17.73;;;15.95;;
32228;SDS011;18717;48.034;11.186;2023-05-15T01:18:15;18.25;;;16.15;;
32228;SDS011;18717;48.034;11.186;2023-05-15T01:20:46;19.23;;;16.20;;
32228;SDS011;18717;48.034;11.186;2023-05-15T01:23:22;17.95;;;15.52;;
32228;SDS011;18717;48.034;11.186;2023-05-15T01:28:42;16.90;;;14.98;;
32228;SDS011;18717;48.034;11.186;2023-05-15T01:31:15;18.77;;;16.33;;
32228;SDS011;18717;48.034;11.186;2023-05-15T01:33:45;18.25;;;16.52;;
32228;SDS011;18717;48.034;11.186;2023-05-15T01:36:17;17.15;;;15.18;;
32228;SDS011;18717;48.034;11.186;2023-05-15T01:38:49;16.97;;;15.23;;
32228;SDS011;18717;48.034;11.186;2023-05-15T01:41:20;16.88;;;15.32;;
32228;SDS011;18717;48.034;11.186;2023-05-15T01:43:55;16.38;;;14.77;;
32228;SDS011;18717;48.034;11.186;2023-05-15T01:46:25;18.20;;;16.27;;
32228;SDS011;18717;48.034;11.186;2023-05-15T01:48:56;17.65;;;15.85;;
32228;SDS011;18717;48.034;11.186;2023-05-15T01:51:24;17.10;;;15.30;;
32228;SDS011;18717;48.034;11.186;2023-05-15T01:53:54;17.80;;;16.00;;
32228;SDS011;18717;48.034;11.186;2023-05-15T01:56:23;18.63;;;16.65;;
32228;SDS011;18717;48.034;11.186;2023-05-15T01:58:53;18.90;;;17.00;;
32228;SDS011;18717;48.034;11.186;2023-05-15T02:01:21;18.08;;;16.15;;
32228;SDS011;18717;48.034;11.186;2023-05-15T02:03:50;17.48;;;15.32;;
32228;SDS011;18717;48.034;11.186;2023-05-15T02:06:18;20.05;;;15.85;;
32228;SDS011;18717;48.034;11.186;2023-05-15T02:08:46;17.77;;;16.10;;
32228;SDS011;18717;48.034;11.186;2023-05-15T02:11:14;18.70;;;16.83;;
32228;SDS011;18717;48.034;11.186;2023-05-15T02:13:42;18.83;;;16.83;;
32228;SDS011;18717;48.034;11.186;2023-05-15T02:16:11;18.45;;;16.38;;
32228;SDS011;18717;48.034;11.186;2023-05-15T02:18:39;22.65;;;15.95;;
32228;SDS011;18717;48.034;11.186;2023-05-15T02:21:07;17.92;;;16.05;;
32228;SDS011;18717;48.034;11.186;2023-05-15T02:23:35;18.10;;;16.30;;
32228;SDS011;18717;48.034;11.186;2023-05-15T02:26:07;17.67;;;16.17;;
32228;SDS011;18717;48.034;11.186;2023-05-15T02:28:40;17.42;;;15.77;;
32228;SDS011;18717;48.034;11.186;2023-05-15T02:33:41;17.40;;;15.70;;
32228;SDS011;18717;48.034;11.186;2023-05-15T02:36:12;17.20;;;15.60;;
32228;SDS011;18717;48.034;11.186;2023-05-15T02:38:46;16.70;;;15.15;;
32228;SDS011;18717;48.034;11.186;2023-05-15T02:41:15;16.85;;;15.07;;
32228;SDS011;18717;48.034;11.186;2023-05-15T02:43:43;17.80;;;16.00;;
32228;SDS011;18717;48.034;11.186;2023-05-15T02:46:13;16.58;;;14.88;;
32228;SDS011;18717;48.034;11.186;2023-05-15T02:48:41;16.23;;;14.60;;
32228;SDS011;18717;48.034;11.186;2023-05-15T02:51:09;16.88;;;15.27;;
32228;SDS011;18717;48.034;11.186;2023-05-15T02:53:37;16.75;;;15.15;;
32228;SDS011;18717;48.034;11.186;2023-05-15T02:56:05;17.13;;;15.52;;
32228;SDS011;18717;48.034;11.186;2023-05-15T02:58:33;17.83;;;16.05;;
32228;SDS011;18717;48.034;11.186;2023-05-15T03:01:01;16.58;;;14.88;;
32228;SDS011;18717;48.034;11.186;2023-05-15T03:03:31;17.02;;;15.43;;
32228;SDS011;18717;48.034;11.186;2023-05-15T03:05:58;17.90;;;16.10;;
32228;SDS011;18717;48.034;11.186;2023-05-15T03:08:26;17.30;;;15.55;;
32228;SDS011;18717;48.034;11.186;2023-05-15T03:10:54;17.15;;;15.40;;
32228;SDS011;18717;48.034;11.186;2023-05-15T03:13:23;18.15;;;16.33;;
32228;SDS011;18717;48.034;11.186;2023-05-15T03:15:50;18.17;;;15.73;;
32228;SDS011;18717;48.034;11.186;2023-05-15T03:18:18;17.50;;;15.65;;
32228;SDS011;18717;48.034;11.186;2023-05-15T03:20:47;17.55;;;15.85;;
32228;SDS011;18717;48.034;11.186;2023-05-15T03:23:16;19.15;;;15.35;;
32228;SDS011;18717;48.034;11.186;2023-05-15T03:25:43;18.25;;;16.23;;
32228;SDS011;18717;48.034;11.186;2023-05-15T03:28:11;16.83;;;15.18;;
32228;SDS011;18717;48.034;11.186;2023-05-15T03:30:38;18.08;;;16.38;;
32228;SDS011;18717;48.034;11.186;2023-05-15T03:33:06;18.95;;;17.08;;
32228;SDS011;18717;48.034;11.186;2023-05-15T03:35:34;17.58;;;15.93;;
32228;SDS011;18717;48.034;11.186;2023-05-15T03:38:03;17.85;;;16.05;;
32228;SDS011;18717;48.034;11.186;2023-05-15T03:40:30;17.35;;;15.30;;
32228;SDS011;18717;48.034;11.186;2023-05-15T03:42:58;17.40;;;15.60;;
32228;SDS011;18717;48.034;11.186;2023-05-15T03:45:25;18.10;;;16.17;;
32228;SDS011;18717;48.034;11.186;2023-05-15T03:47:54;17.67;;;15.95;;
32228;SDS011;18717;48.034;11.186;2023-05-15T03:50:21;17.90;;;16.10;;
32228;SDS011;18717;48.034;11.186;2023-05-15T03:52:49;17.95;;;16.02;;
32228;SDS011;18717;48.034;11.186;2023-05-15T03:55:18;18.83;;;16.77;;
32228;SDS011;18717;48.034;11.186;2023-05-15T03:57:45;18.80;;;16.98;;
32228;SDS011;18717;48.034;11.186;2023-05-15T04:00:13;18.90;;;15.65;;
32228;SDS011;18717;48.034;11.186;2023-05-15T04:02:44;18.48;;;16.25;;
32228;SDS011;18717;48.034;11.186;2023-05-15T04:05:11;17.58;;;15.90;;
32228;SDS011;18717;48.034;11.186;2023-05-15T04:07:39;21.25;;;16.67;;
32228;SDS011;18717;48.034;11.186;2023-05-15T04:10:07;19.25;;;16.50;;
32228;SDS011;18717;48.034;11.186;2023-05-15T04:12:36;19.92;;;16.05;;
32228;SDS011;18717;48.034;11.186;2023-05-15T04:15:14;16.88;;;15.10;;
32228;SDS011;18717;48.034;11.186;2023-05-15T04:17:42;18.58;;;16.67;;
32228;SDS011;18717;48.034;11.186;2023-05-15T04:20:11;17.60;;;15.98;;
32228;SDS011;18717;48.034;11.186;2023-05-15T04:22:39;18.92;;;16.23;;
32228;SDS011;18717;48.034;11.186;2023-05-15T04:25:07;17.85;;;16.15;;
32228;SDS011;18717;48.034;11.186;2023-05-15T04:27:37;24.08;;;16.10;;
32228;SDS011;18717;48.034;11.186;2023-05-15T04:30:05;17.58;;;15.68;;
32228;SDS011;18717;48.034;11.186;2023-05-15T04:32:34;18.40;;;16.65;;
32228;SDS011;18717;48.034;11.186;2023-05-15T04:35:03;18.33;;;16.40;;
32228;SDS011;18717;48.034;11.186;2023-05-15T04:37:31;17.30;;;15.57;;
32228;SDS011;18717;48.034;11.186;2023-05-15T04:39:59;20.30;;;18.08;;
32228;SDS011;18717;48.034;11.186;2023-05-15T04:42:26;17.83;;;16.02;;
32228;SDS011;18717;48.034;11.186;2023-05-15T04:44:55;19.00;;;17.00;;
32228;SDS011;18717;48.034;11.186;2023-05-15T04:47:23;19.20;;;16.27;;
32228;SDS011;18717;48.034;11.186;2023-05-15T04:49:51;18.45;;;16.45;;
32228;SDS011;18717;48.034;11.186;2023-05-15T04:52:19;19.40;;;16.20;;
32228;SDS011;18717;48.034;11.186;2023-05-15T04:54:46;17.02;;;15.43;;
32228;SDS011;18717;48.034;11.186;2023-05-15T04:57:16;18.80;;;16.73;;
32228;SDS011;18717;48.034;11.186;2023-05-15T04:59:44;18.92;;;16.77;;
32228;SDS011;18717;48.034;11.186;2023-05-15T05:02:13;18.13;;;16.25;;
32228;SDS011;18717;48.034;11.186;2023-05-15T05:04:41;19.90;;;17.83;;
32228;SDS011;18717;48.034;11.186;2023-05-15T05:07:09;18.35;;;16.55;;
32228;SDS011;18717;48.034;11.186;2023-05-15T05:09:37;18.27;;;16.48;;
32228;SDS011;18717;48.034;11.186;2023-05-15T05:12:05;18.45;;;16.55;;
32228;SDS011;18717;48.034;11.186;2023-05-15T05:14:33;18.02;;;16.20;;
32228;SDS011;18717;48.034;11.186;2023-05-15T05:17:01;18.38;;;16.58;;
32228;SDS011;18717;48.034;11.186;2023-05-15T05:19:30;16.63;;;15.00;;
32228;SDS011;18717;48.034;11.186;2023-05-15T05:21:58;16.90;;;15.20;;
32228;SDS011;18717;48.034;11.186;2023-05-15T05:24:29;27.37;;;15.80;;
32228;SDS011;18717;48.034;11.186;2023-05-15T05:26:58;17.92;;;16.17;;
32228;SDS011;18717;48.034;11.186;2023-05-15T05:29:25;18.33;;;16.48;;
32228;SDS011;18717;48.034;11.186;2023-05-15T05:31:53;18.27;;;16.30;;
32228;SDS011;18717;48.034;11.186;2023-05-15T05:34:21;17.13;;;15.50;;
32228;SDS011;18717;48.034;11.186;2023-05-15T05:36:50;16.38;;;14.90;;
32228;SDS011;18717;48.034;11.186;2023-05-15T05:39:18;16.63;;;15.02;;
32228;SDS011;18717;48.034;11.186;2023-05-15T05:41:45;17.70;;;16.08;;
32228;SDS011;18717;48.034;11.186;2023-05-15T05:44:13;16.90;;;15.32;;
32228;SDS011;18717;48.034;11.186;2023-05-15T05:46:41;18.45;;;16.63;;
32228;SDS011;18717;48.034;11.186;2023-05-15T05:49:10;18.40;;;15.82;;
32228;SDS011;18717;48.034;11.186;2023-05-15T05:51:38;16.67;;;15.18;;
32228;SDS011;18717;48.034;11.186;2023-05-15T05:54:07;18.50;;;16.58;;
32228;SDS011;18717;48.034;11.186;2023-05-15T05:56:34;17.42;;;15.77;;
32228;SDS011;18717;48.034;11.186;2023-05-15T05:59:02;19.58;;;16.55;;
32228;SDS011;18717;48.034;11.186;2023-05-15T06:01:31;17.05;;;15.45;;
32228;SDS011;18717;48.034;11.186;2023-05-15T06:03:59;17.60;;;15.85;;
32228;SDS011;18717;48.034;11.186;2023-05-15T06:06:27;18.27;;;16.40;;
32228;SDS011;18717;48.034;11.186;2023-05-15T06:08:55;17.50;;;16.00;;
32228;SDS011;18717;48.034;11.186;2023-05-15T06:11:24;16.98;;;15.05;;
32228;SDS011;18717;48.034;11.186;2023-05-15T06:13:52;16.65;;;15.00;;
32228;SDS011;18717;48.034;11.186;2023-05-15T06:16:20;17.33;;;15.70;;
32228;SDS011;18717;48.034;11.186;2023-05-15T06:18:47;17.80;;;15.98;;
32228;SDS011;18717;48.034;11.186;2023-05-15T06:21:15;16.92;;;15.43;;
32228;SDS011;18717;48.034;11.186;2023-05-15T06:23:43;17.83;;;14.68;;
32228;SDS011;18717;48.034;11.186;2023-05-15T06:26:10;17.20;;;14.80;;
32228;SDS011;18717;48.034;11.186;2023-05-15T06:28:39;17.60;;;15.90;;
32228;SDS011;18717;48.034;11.186;2023-05-15T06:31:07;18.27;;;16.58;;
32228;SDS011;18717;48.034;11.186;2023-05-15T06:33:35;17.35;;;15.73;;
32228;SDS011;18717;48.034;11.186;2023-05-15T06:36:02;17.17;;;15.48;;
32228;SDS011;18717;48.034;11.186;2023-05-15T06:38:30;18.20;;;16.50;;
32228;SDS011;18717;48.034;11.186;2023-05-15T06:40:58;18.45;;;16.60;;
32228;SDS011;18717;48.034;11.186;2023-05-15T06:43:26;17.77;;;15.70;;
32228;SDS011;18717;48.034;11.186;2023-05-15T06:45:55;17.85;;;15.98;;
32228;SDS011;18717;48.034;11.186;2023-05-15T06:48:22;17.92;;;16.33;;
32228;SDS011;18717;48.034;11.186;2023-05-15T06:50:50;18.05;;;16.23;;
32228;SDS011;18717;48.034;11.186;2023-05-15T06:53:18;17.60;;;16.00;;
32228;SDS011;18717;48.034;11.186;2023-05-15T06:55:46;17.25;;;15.70;;
32228;SDS011;18717;48.034;11.186;2023-05-15T06:58:13;19.05;;;17.20;;
32228;SDS011;18717;48.034;11.186;2023-05-15T07:00:43;19.73;;;16.75;;
32228;SDS011;18717;48.034;11.186;2023-05-15T07:03:12;18.75;;;17.10;;
32228;SDS011;18717;48.034;11.186;2023-05-15T07:05:41;19.05;;;17.23;;
32228;SDS011;18717;48.034;11.186;2023-05-15T07:08:09;19.13;;;17.20;;
32228;SDS011;18717;48.034;11.186;2023-05-15T07:10:37;18.20;;;16.52;;
32228;SDS011;18717;48.034;11.186;2023-05-15T07:13:04;17.55;;;16.05;;
32228;SDS011;18717;48.034;11.186;2023-05-15T07:15:32;17.98;;;16.38;;
32228;SDS011;18717;48.034;11.186;2023-05-15T07:17:59;19.05;;;17.25;;
32228;SDS011;18717;48.034;11.186;2023-05-15T07:20:29;18.02;;;16.25;;
32228;SDS011;18717;48.034;11.186;2023-05-15T07:23:00;18.45;;;16.73;;
32228;SDS011;18717;48.034;11.186;2023-05-15T07:25:27;19.67;;;17.67;;
32228;SDS011;18717;48.034;11.186;2023-05-15T07:27:55;18.05;;;16.33;;
32228;SDS011;18717;48.034;11.186;2023-05-15T07:30:23;19.33;;;17.02;;
32228;SDS011;18717;48.034;11.186;2023-05-15T07:32:52;19.10;;;17.20;;
32228;SDS011;18717;48.034;11.186;2023-05-15T07:35:19;25.05;;;18.17;;
32228;SDS011;18717;48.034;11.186;2023-05-15T07:37:48;18.38;;;16.60;;
32228;SDS011;18717;48.034;11.186;2023-05-15T07:40:16;18.35;;;16.70;;
32228;SDS011;18717;48.034;11.186;2023-05-15T07:42:44;18.13;;;16.42;;
32228;SDS011;18717;48.034;11.186;2023-05-15T07:45:12;18.75;;;16.90;;
32228;SDS011;18717;48.034;11.186;2023-05-15T07:47:43;17.67;;;16.08;;
32228;SDS011;18717;48.034;11.186;2023-05-15T07:50:11;19.25;;;17.55;;
32228;SDS011;18717;48.034;11.186;2023-05-15T07:52:39;18.33;;;16.52;;
32228;SDS011;18717;48.034;11.186;2023-05-15T07:55:09;19.58;;;17.60;;
32228;SDS011;18717;48.034;11.186;2023-05-15T07:57:37;18.58;;;16.88;;
32228;SDS011;18717;48.034;11.186;2023-05-15T08:00:06;20.00;;;17.77;;
32228;SDS011;18717;48.034;11.186;2023-05-15T08:02:38;19.13;;;17.42;;
32228;SDS011;18717;48.034;11.186;2023-05-15T08:05:06;17.48;;;16.02;;
32228;SDS011;18717;48.034;11.186;2023-05-15T08:07:34;17.98;;;16.27;;
32228;SDS011;18717;48.034;11.186;2023-05-15T08:10:02;17.63;;;15.82;;
32228;SDS011;18717;48.034;11.186;2023-05-15T08:12:32;17.35;;;15.80;;
32228;SDS011;18717;48.034;11.186;2023-05-15T08:15:00;17.73;;;16.13;;
32228;SDS011;18717;48.034;11.186;2023-05-15T08:17:28;17.95;;;16.25;;
32228;SDS011;18717;48.034;11.186;2023-05-15T08:19:55;18.73;;;17.13;;
32228;SDS011;18717;48.034;11.186;2023-05-15T08:22:23;18.73;;;16.92;;
32228;SDS011;18717;48.034;11.186;2023-05-15T08:24:51;18.17;;;16.45;;
32228;SDS011;18717;48.034;11.186;2023-05-15T08:27:18;19.35;;;17.42;;
32228;SDS011;18717;48.034;11.186;2023-05-15T08:29:47;19.13;;;17.42;;
32228;SDS011;18717;48.034;11.186;2023-05-15T08:32:15;19.25;;;17.38;;
32228;SDS011;18717;48.034;11.186;2023-05-15T08:34:43;18.67;;;16.85;;
32228;SDS011;18717;48.034;11.186;2023-05-15T08:37:10;19.65;;;17.95;;
32228;SDS011;18717;48.034;11.186;2023-05-15T08:39:38;17.98;;;16.55;;
32228;SDS011;18717;48.034;11.186;2023-05-15T08:42:07;17.40;;;15.90;;
32228;SDS011;18717;48.034;11.186;2023-05-15T08:44:35;18.40;;;16.60;;
32228;SDS011;18717;48.034;11.186;2023-05-15T08:47:04;19.10;;;17.35;;
32228;SDS011;18717;48.034;11.186;2023-05-15T08:49:35;18.73;;;16.85;;
32228;SDS011;18717;48.034;11.186;2023-05-15T08:52:07;17.35;;;15.88;;
32228;SDS011;18717;48.034;11.186;2023-05-15T08:54:35;16.58;;;15.27;;
32228;SDS011;18717;48.034;11.186;2023-05-15T08:57:03;17.92;;;16.52;;
32228;SDS011;18717;48.034;11.186;2023-05-15T08:59:31;16.65;;;15.25;;
32228;SDS011;18717;48.034;11.186;2023-05-15T09:01:59;18.17;;;16.33;;
32228;SDS011;18717;48.034;11.186;2023-05-15T09:04:28;17.10;;;15.70;;
32228;SDS011;18717;48.034;11.186;2023-05-15T09:06:57;17.33;;;15.93;;
32228;SDS011;18717;48.034;11.186;2023-05-15T09:09:25;17.48;;;15.75;;
32228;SDS011;18717;48.034;11.186;2023-05-15T09:11:54;16.58;;;15.38;;
32228;SDS011;18717;48.034;11.186;2023-05-15T09:14:22;18.27;;;16.83;;
32228;SDS011;18717;48.034;11.186;2023-05-15T09:16:49;17.77;;;16.33;;
32228;SDS011;18717;48.034;11.186;2023-05-15T09:19:18;19.52;;;17.60;;
32228;SDS011;18717;48.034;11.186;2023-05-15T09:21:49;19.45;;;17.45;;
32228;SDS011;18717;48.034;11.186;2023-05-15T09:24:18;19.50;;;17.80;;
32228;SDS011;18717;48.034;11.186;2023-05-15T09:26:47;16.77;;;15.48;;
32228;SDS011;18717;48.034;11.186;2023-05-15T09:29:28;18.77;;;17.33;;
32228;SDS011;18717;48.034;11.186;2023-05-15T09:31:56;16.83;;;15.43;;
32228;SDS011;18717;48.034;11.186;2023-05-15T09:34:29;18.48;;;16.90;;
32228;SDS011;18717;48.034;11.186;2023-05-15T09:37:00;17.38;;;15.82;;
32228;SDS011;18717;48.034;11.186;2023-05-15T09:39:29;16.95;;;15.55;;
32228;SDS011;18717;48.034;11.186;2023-05-15T09:42:04;17.92;;;16.50;;
32228;SDS011;18717;48.034;11.186;2023-05-15T09:44:33;17.67;;;16.30;;
32228;SDS011;18717;48.034;11.186;2023-05-15T09:47:01;16.08;;;14.65;;
32228;SDS011;18717;48.034;11.186;2023-05-15T09:49:29;17.10;;;15.77;;
32228;SDS011;18717;48.034;11.186;2023-05-15T09:52:00;18.58;;;16.98;;
32228;SDS011;18717;48.034;11.186;2023-05-15T09:54:28;16.65;;;15.35;;
32228;SDS011;18717;48.034;11.186;2023-05-15T09:56:56;17.27;;;15.75;;
32228;SDS011;18717;48.034;11.186;2023-05-15T09:59:33;18.88;;;17.30;;
32228;SDS011;18717;48.034;11.186;2023-05-15T10:02:01;17.98;;;16.45;;
32228;SDS011;18717;48.034;11.186;2023-05-15T10:04:32;16.42;;;15.10;;
32228;SDS011;18717;48.034;11.186;2023-05-15T10:07:02;17.73;;;16.30;;
32228;SDS011;18717;48.034;11.186;2023-05-15T10:09:30;17.20;;;15.82;;
32228;SDS011;18717;48.034;11.186;2023-05-15T10:11:58;16.58;;;15.27;;
32228;SDS011;18717;48.034;11.186;2023-05-15T10:14:26;17.13;;;15.88;;
32228;SDS011;18717;48.034;11.186;2023-05-15T10:16:54;17.73;;;16.42;;
32228;SDS011;18717;48.034;11.186;2023-05-15T10:19:22;17.20;;;15.90;;
32228;SDS011;18717;48.034;11.186;2023-05-15T10:21:51;17.52;;;16.35;;
32228;SDS011;18717;48.034;11.186;2023-05-15T10:24:21;16.67;;;15.50;;
32228;SDS011;18717;48.034;11.186;2023-05-15T10:26:49;16.88;;;15.77;;
32228;SDS011;18717;48.034;11.186;2023-05-15T10:29:17;16.55;;;15.40;;
32228;SDS011;18717;48.034;11.186;2023-05-15T10:31:46;17.35;;;16.15;;
32228;SDS011;18717;48.034;11.186;2023-05-15T10:34:15;18.23;;;16.17;;
32228;SDS011;18717;48.034;11.186;2023-05-15T10:36:43;17.52;;;16.35;;
32228;SDS011;18717;48.034;11.186;2023-05-15T10:39:11;17.55;;;16.27;;
32228;SDS011;18717;48.034;11.186;2023-05-15T10:41:40;18.42;;;17.02;;
32228;SDS011;18717;48.034;11.186;2023-05-15T10:44:08;16.95;;;15.50;;
32228;SDS011;18717;48.034;11.186;2023-05-15T10:46:36;16.90;;;15.70;;
32228;SDS011;18717;48.034;11.186;2023-05-15T10:49:04;17.92;;;16.65;;
32228;SDS011;18717;48.034;11.186;2023-05-15T10:51:32;17.15;;;15.95;;
32228;SDS011;18717;48.034;11.186;2023-05-15T10:54:02;18.33;;;17.05;;
32228;SDS011;18717;48.034;11.186;2023-05-15T10:56:30;18.38;;;17.17;;
32228;SDS011;18717;48.034;11.186;2023-05-15T10:59:04;17.33;;;16.13;;
32228;SDS011;18717;48.034;11.186;2023-05-15T11:01:32;18.48;;;17.08;;
32228;SDS011;18717;48.034;11.186;2023-05-15T11:04:08;17.25;;;16.08;;
32228;SDS011;18717;48.034;11.186;2023-05-15T11:06:37;17.20;;;15.90;;
32228;SDS011;18717;48.034;11.186;2023-05-15T11:12:03;16.40;;;15.20;;
32228;SDS011;18717;48.034;11.186;2023-05-15T11:14:35;16.98;;;15.88;;
32228;SDS011;18717;48.034;11.186;2023-05-15T11:17:05;17.05;;;15.85;;
32228;SDS011;18717;48.034;11.186;2023-05-15T11:19:37;16.50;;;15.40;;
32228;SDS011;18717;48.034;11.186;2023-05-15T11:22:20;16.42;;;15.23;;
32228;SDS011;18717;48.034;11.186;2023-05-15T11:24:50;16.15;;;15.10;;
32228;SDS011;18717;48.034;11.186;2023-05-15T11:27:19;16.67;;;15.52;;
32228;SDS011;18717;48.034;11.186;2023-05-15T11:32:49;15.15;;;14.15;;
32228;SDS011;18717;48.034;11.186;2023-05-15T11:35:19;15.80;;;14.77;;
32228;SDS011;18717;48.034;11.186;2023-05-15T11:37:49;18.95;;;17.23;;
32228;SDS011;18717;48.034;11.186;2023-05-15T11:40:19;17.45;;;16.23;;
32228;SDS011;18717;48.034;11.186;2023-05-15T11:42:59;17.52;;;16.23;;
32228;SDS011;18717;48.034;11.186;2023-05-15T11:45:30;16.25;;;15.15;;
32228;SDS011;18717;48.034;11.186;2023-05-15T11:47:59;16.63;;;15.32;;
32228;SDS011;18717;48.034;11.186;2023-05-15T11:50:29;17.05;;;15.40;;
32228;SDS011;18717;48.034;11.186;2023-05-15T11:52:57;16.00;;;15.02;;
32228;SDS011;18717;48.034;11.186;2023-05-15T11:55:25;16.60;;;15.32;;
32228;SDS011;18717;48.034;11.186;2023-05-15T11:57:53;14.82;;;13.90;;
32228;SDS011;18717;48.034;11.186;2023-05-15T12:00:21;15.35;;;14.45;;
32228;SDS011;18717;48.034;11.186;2023-05-15T12:02:50;14.73;;;13.63;;
32228;SDS011;18717;48.034;11.186;2023-05-15T12:05:18;15.20;;;14.07;;
32228;SDS011;18717;48.034;11.186;2023-05-15T12:07:46;14.00;;;12.90;;
32228;SDS011;18717;48.034;11.186;2023-05-15T12:10:14;14.15;;;13.20;;
32228;SDS011;18717;48.034;11.186;2023-05-15T12:12:42;13.68;;;12.88;;
32228;SDS011;18717;48.034;11.186;2023-05-15T12:15:11;13.40;;;12.60;;
32228;SDS011;18717;48.034;11.186;2023-05-15T12:17:39;13.77;;;12.95;;
32228;SDS011;18717;48.034;11.186;2023-05-15T12:20:10;13.73;;;12.93;;
32228;SDS011;18717;48.034;11.186;2023-05-15T12:22:43;14.27;;;13.15;;
32228;SDS011;18717;48.034;11.186;2023-05-15T12:25:11;13.95;;;13.15;;
32228;SDS011;18717;48.034;11.186;2023-05-15T12:27:39;13.63;;;12.70;;
32228;SDS011;18717;48.034;11.186;2023-05-15T12:30:06;13.23;;;12.48;;
32228;SDS011;18717;48.034;11.186;2023-05-15T12:32:36;13.30;;;12.35;;
32228;SDS011;18717;48.034;11.186;2023-05-15T12:35:04;12.60;;;11.55;;
32228;SDS011;18717;48.034;11.186;2023-05-15T12:37:34;12.73;;;12.02;;
32228;SDS011;18717;48.034;11.186;2023-05-15T12:40:03;11.95;;;11.35;;
32228;SDS011;18717;48.034;11.186;2023-05-15T12:42:39;12.85;;;12.25;;
32228;SDS011;18717;48.034;11.186;2023-05-15T12:45:11;12.30;;;11.57;;
32228;SDS011;18717;48.034;11.186;2023-05-15T12:47:40;11.88;;;11.27;;
32228;SDS011;18717;48.034;11.186;2023-05-15T12:50:15;11.50;;;10.90;;
32228;SDS011;18717;48.034;11.186;2023-05-15T12:52:50;12.07;;;11.48;;
32228;SDS011;18717;48.034;11.186;2023-05-15T12:55:22;11.98;;;11.38;;
32228;SDS011;18717;48.034;11.186;2023-05-15T12:57:50;11.93;;;11.32;;
32228;SDS011;18717;48.034;11.186;2023-05-15T13:00:19;11.80;;;11.18;;
32228;SDS011;18717;48.034;11.186;2023-05-15T13:02:48;11.93;;;11.23;;
32228;SDS011;18717;48.034;11.186;2023-05-15T13:05:16;12.15;;;11.45;;
32228;SDS011;18717;48.034;11.186;2023-05-15T13:07:44;12.85;;;12.20;;
32228;SDS011;18717;48.034;11.186;2023-05-15T13:10:13;12.45;;;11.73;;
32228;SDS011;18717;48.034;11.186;2023-05-15T13:12:41;12.23;;;11.63;;
32228;SDS011;18717;48.034;11.186;2023-05-15T13:15:21;12.52;;;11.82;;
32228;SDS011;18717;48.034;11.186;2023-05-15T13:17:53;12.27;;;11.52;;
32228;SDS011;18717;48.034;11.186;2023-05-15T13:20:24;12.32;;;11.73;;
32228;SDS011;18717;48.034;11.186;2023-05-15T13:22:53;11.77;;;11.23;;
32228;SDS011;18717;48.034;11.186;2023-05-15T13:25:22;11.90;;;11.30;;
32228;SDS011;18717;48.034;11.186;2023-05-15T13:27:50;12.30;;;11.70;;
32228;SDS011;18717;48.034;11.186;2023-05-15T13:30:18;12.43;;;11.73;;
32228;SDS011;18717;48.034;11.186;2023-05-15T13:32:45;13.10;;;12.30;;
32228;SDS011;18717;48.034;11.186;2023-05-15T13:35:13;13.50;;;12.80;;
32228;SDS011;18717;48.034;11.186;2023-05-15T13:37:41;13.82;;;13.13;;
32228;SDS011;18717;48.034;11.186;2023-05-15T13:40:09;12.35;;;11.75;;
32228;SDS011;18717;48.034;11.186;2023-05-15T13:42:40;13.50;;;12.75;;
32228;SDS011;18717;48.034;11.186;2023-05-15T13:45:09;13.18;;;12.48;;
32228;SDS011;18717;48.034;11.186;2023-05-15T13:47:38;13.80;;;13.10;;
32228;SDS011;18717;48.034;11.186;2023-05-15T13:50:06;13.75;;;13.05;;
32228;SDS011;18717;48.034;11.186;2023-05-15T13:52:35;13.52;;;12.82;;
32228;SDS011;18717;48.034;11.186;2023-05-15T13:55:03;12.77;;;12.18;;
32228;SDS011;18717;48.034;11.186;2023-05-15T13:57:31;12.95;;;12.32;;
32228;SDS011;18717;48.034;11.186;2023-05-15T14:00:00;14.55;;;13.45;;
32228;SDS011;18717;48.034;11.186;2023-05-15T14:02:30;15.63;;;14.60;;
32228;SDS011;18717;48.034;11.186;2023-05-15T14:04:57;13.93;;;13.23;;
32228;SDS011;18717;48.034;11.186;2023-05-15T14:07:26;13.10;;;12.30;;
32228;SDS011;18717;48.034;11.186;2023-05-15T14:09:53;13.02;;;12.25;;
32228;SDS011;18717;48.034;11.186;2023-05-15T14:12:21;12.13;;;11.63;;
32228;SDS011;18717;48.034;11.186;2023-05-15T14:14:48;12.55;;;11.85;;
32228;SDS011;18717;48.034;11.186;2023-05-15T14:17:18;12.50;;;11.80;;
32228;SDS011;18717;48.034;11.186;2023-05-15T14:19:45;12.45;;;11.85;;
32228;SDS011;18717;48.034;11.186;2023-05-15T14:22:13;12.65;;;11.95;;
32228;SDS011;18717;48.034;11.186;2023-05-15T14:24:41;12.50;;;11.70;;
32228;SDS011;18717;48.034;11.186;2023-05-15T14:27:09;12.73;;;11.93;;
32228;SDS011;18717;48.034;11.186;2023-05-15T14:29:37;13.10;;;12.45;;